Flugplatz Hamburg

Bericht für EDDH

vom 22.11. um 15:20 UTC

Wind 13 kt aus 210°

Sichtweite 10 km oder mehr

aufgebrochene Bewölkung in 2100 ft

Temperatur 11.0°C

Taupunkt 9.0°C

Luftfeuchtigkeit 87%

Luftdruck 1003 hPa

keine wesentliche Wetteränderung innerhalb den nächsten 2 Stunden zu erwarten

EDDH 221520Z 21013KT 9999 BKN021 11/09 Q1003 NOSIG

Prognose für EDDH

vom 22.11. um 11:00 UTC

Zwischen 12:00 UTC und 13:00 UTC

Wind 13 kt aus 190°

Sichtweite 7000 m

aufgebrochene Bewölkung in 600 ft


Zwischen 13:00 und 16:00 UTC übergehend zu

Wind 13 kt aus 190°

Sichtweite 7000 m

aufgelockert bewölkt in 2500 ft


Am 23.11. zwischen 07:00 UTC und 18:00 UTC zeitweise

Wind 15 kt aus 200° in Böen 30 kt

TAF EDDH 221100Z 2212/2318 19013KT 7000 BKN006 BECMG 2213/2216 SCT025 TEMPO 2307/2318 20015G30KT
Impressum